Time;durP1;ratioP1;P1;durP2;ratioP2;P2;SDS_P1;SDS_P2;PMS_P1;PMS_P2;Temp;Humidity;BMP_temperature;BMP_pressure;BME280_temperature;BME280_humidity;BME280_pressure;Samples;Min_cycle;Max_cycle;Signal;HPM_P1;HPM_P2
2021/12/07 00:01:15;;;;;;;;;;;;;;;0.32;84.89;99899.59;1714753;83;20973;-76
2021/12/07 00:03:41;;;;;;;;;;;;;;;0.31;84.79;99910.45;1738966;81;20186;-75
2021/12/07 00:06:08;;;;;;;;;;;;;;;0.41;84.25;99909.87;1743351;80;22054;-76
2021/12/07 00:08:35;;;;;;;;;;;;;;;0.36;84.32;99911.47;1732864;82;20165;-76
2021/12/07 00:11:03;;;;;;;;;;;;;;;0.48;84.16;99905.94;1724670;82;20103;-76
2021/12/07 00:13:36;;;;;;;;;;;;;;;0.35;84.17;99904.59;1727985;82;20246;-77
2021/12/07 00:16:00;;;;;;;;;;;;;;;0.27;84.72;99905.08;1731765;82;20527;-75
2021/12/07 00:18:25;;;;;;;;;;;;;;;0.19;85.21;99906.03;1740535;82;21791;-75
2021/12/07 00:20:51;;;;;;;;;;;;;;;0.26;85.21;99912.48;1741202;82;20202;-79
2021/12/07 00:23:17;;;;;;;;;;;;;;;0.19;84.60;99915.12;1755139;81;20172;-79
2021/12/07 00:25:44;;;;;;;;;;;;;;;0.20;84.92;99918.54;1727557;81;20891;-76
2021/12/07 00:28:10;;;;;;;;;;;;;;;0.20;84.77;99919.36;1735851;82;20175;-75
2021/12/07 00:30:36;;;;;;;;;;;;;;;0.31;84.29;99921.29;1740485;81;21148;-75
2021/12/07 00:33:11;;;;;;;;;;;;;;;0.31;84.28;99927.34;1737858;81;20172;-75
2021/12/07 00:35:34;;;;;;;;;;;;;;;0.33;83.94;99926.77;1713019;82;20155;-75
2021/12/07 00:38:02;;;;;;;;;;;;;;;0.46;83.71;99929.89;1737189;82;20200;-78
2021/12/07 00:40:30;;;;;;;;;;;;;;;0.55;83.35;99942.78;1741151;81;20252;-77
2021/12/07 00:42:57;;;;;;;;;;;;;;;0.45;83.02;99947.25;1737130;82;22621;-77
2021/12/07 00:45:25;;;;;;;;;;;;;;;0.39;83.00;99957.17;1735031;81;20150;-77
2021/12/07 00:47:52;;;;;;;;;;;;;;;0.30;83.40;99956.83;1737711;81;20206;-76
2021/12/07 00:50:18;;;;;;;;;;;;;;;0.31;83.64;99966.30;1728473;81;20218;-76
2021/12/07 00:52:48;;;;;;;;;;;;;;;0.28;83.94;99966.93;1731192;82;20514;-78
2021/12/07 00:55:17;;;;;;;;;;;;;;;0.32;84.02;99965.34;1731629;82;20870;-76
2021/12/07 00:57:42;;;;;;;;;;;;;;;0.27;83.67;99967.41;1736796;80;20151;-77
2021/12/07 01:00:11;;;;;;;;;;;;;;;0.08;84.93;99977.23;1752037;80;20224;-76
2021/12/07 01:02:36;;;;;;;;;;;;;;;0.17;84.74;99974.08;1751806;80;20179;-77
2021/12/07 01:05:11;;;;;;;;;;;;;;;0.33;84.25;99974.81;1750131;80;20204;-79
2021/12/07 01:07:59;;;;;;;;;;;;;;;0.38;83.65;99975.01;1748538;80;20596;-80
2021/12/07 01:26:48;;;;;;;;;;;;;;;0.19;83.83;99967.05;1747660;80;20161;-74
2021/12/07 01:29:16;;;;;;;;;;;;;;;0.21;83.77;99969.08;1743878;80;20149;-75
2021/12/07 01:31:56;;;;;;;;;;;;;;;0.16;83.53;99969.84;1749242;80;20160;-75
2021/12/07 01:37:07;;;;;;;;;;;;;;;-0.02;83.75;99960.09;1734677;80;20134;-79
2021/12/07 01:39:53;;;;;;;;;;;;;;;0.10;83.89;99962.42;1743936;80;20136;-78
2021/12/07 01:45:21;;;;;;;;;;;;;;;-0.12;84.92;99963.72;1752634;80;20224;-78
2021/12/07 01:47:45;;;;;;;;;;;;;;;-0.22;85.00;99965.19;1737691;80;20126;-75
2021/12/07 01:50:32;;;;;;;;;;;;;;;-0.17;85.07;99957.98;1750890;80;20147;-79
2021/12/07 01:53:00;;;;;;;;;;;;;;;-0.23;85.18;99950.56;1727777;80;20501;-79
2021/12/07 02:00:26;;;;;;;;;;;;;;;0.07;84.40;99949.63;1704596;83;20149;-76
2021/12/07 02:02:52;;;;;;;;;;;;;;;0.07;84.19;99954.81;1705037;83;20194;-75
2021/12/07 02:05:18;;;;;;;;;;;;;;;-0.18;84.74;99956.30;1704713;83;20137;-75
2021/12/07 02:07:45;;;;;;;;;;;;;;;-0.19;85.08;99957.22;1708692;83;21362;-75
2021/12/07 02:10:21;;;;;;;;;;;;;;;-0.26;85.41;99956.77;1704172;83;20190;-76
2021/12/07 02:12:45;;;;;;;;;;;;;;;-0.30;85.58;99963.52;1701547;83;20165;-75
2021/12/07 02:15:13;;;;;;;;;;;;;;;-0.38;85.92;99968.69;1702057;82;20189;-75
2021/12/07 02:17:39;;;;;;;;;;;;;;;-0.62;87.02;99961.05;1705229;83;20145;-76
2021/12/07 02:20:05;;;;;;;;;;;;;;;-0.67;87.30;99960.48;1705421;83;20188;-76
2021/12/07 02:22:31;;;;;;;;;;;;;;;-0.46;86.94;99960.53;1705156;82;20197;-75
2021/12/07 02:24:57;;;;;;;;;;;;;;;-0.36;86.30;99966.00;1684781;84;21473;-75
2021/12/07 02:27:24;;;;;;;;;;;;;;;-0.29;86.08;99961.31;1705906;83;20197;-76
2021/12/07 02:29:50;;;;;;;;;;;;;;;-0.28;86.19;99959.92;1705538;83;20228;-75
2021/12/07 02:32:17;;;;;;;;;;;;;;;-0.10;85.31;99954.07;1708115;83;20624;-78
2021/12/07 02:34:53;;;;;;;;;;;;;;;-0.05;85.03;99954.65;1708297;83;20197;-76
2021/12/07 02:37:10;;;;;;;;;;;;;;;-0.10;85.11;99954.07;1701558;83;20156;-76
2021/12/07 02:39:37;;;;;;;;;;;;;;;-0.05;85.21;99954.65;1703356;83;20156;-75
2021/12/07 02:42:03;;;;;;;;;;;;;;;-0.11;85.53;99956.76;1710241;83;20122;-75
2021/12/07 02:44:30;;;;;;;;;;;;;;;0.03;85.05;99968.43;1705474;84;20328;-76
2021/12/07 02:46:56;;;;;;;;;;;;;;;-0.02;84.72;99962.25;1691413;84;20491;-77
2021/12/07 02:49:24;;;;;;;;;;;;;;;-0.14;85.10;99960.84;1709190;83;21019;-78
2021/12/07 02:51:51;;;;;;;;;;;;;;;-0.07;84.76;99956.48;1706563;82;20400;-75
2021/12/07 02:54:19;;;;;;;;;;;;;;;-0.07;84.96;99961.67;1706473;82;20189;-76
2021/12/07 02:56:45;;;;;;;;;;;;;;;0.02;84.62;99951.65;1705009;84;20118;-76
2021/12/07 02:59:10;;;;;;;;;;;;;;;-0.15;84.40;99955.30;1739346;81;20178;-76
2021/12/07 03:01:43;;;;;;;;;;;;;;;-0.15;84.80;99953.52;1745270;81;21148;-76
2021/12/07 03:04:15;;;;;;;;;;;;;;;-0.25;85.19;99945.91;1743372;80;20130;-76
2021/12/07 03:07:07;;;;;;;;;;;;;;;-0.20;84.75;99947.78;1748526;81;20113;-78
2021/12/07 03:26:14;;;;;;;;;;;;;;;0.14;82.97;99945.70;1746526;81;20972;-77
2021/12/07 03:28:20;;;;;;;;;;;;;;;-0.02;83.52;99950.56;1743040;80;20867;-76
2021/12/07 03:30:46;;;;;;;;;;;;;;;0.02;84.13;99955.55;1746213;81;20147;-79
2021/12/07 03:33:13;;;;;;;;;;;;;;;-0.04;84.25;99945.91;1745298;80;20515;-75
2021/12/07 03:35:39;;;;;;;;;;;;;;;-0.19;85.16;99945.09;1746516;81;20863;-76
2021/12/07 03:38:07;;;;;;;;;;;;;;;-0.13;84.90;99937.39;1730037;80;20136;-79
2021/12/07 03:40:32;;;;;;;;;;;;;;;-0.01;84.61;99941.83;1749570;80;21028;-77
2021/12/07 03:42:58;;;;;;;;;;;;;;;0.12;84.29;99941.08;1744390;81;20149;-76
2021/12/07 03:45:26;;;;;;;;;;;;;;;-0.01;84.17;99948.80;1742237;81;20283;-76
2021/12/07 03:47:54;;;;;;;;;;;;;;;0.03;84.13;99949.43;1743429;80;20193;-75
2021/12/07 03:50:22;;;;;;;;;;;;;;;0.06;83.88;99947.47;1740972;81;20205;-74
2021/12/07 03:52:51;;;;;;;;;;;;;;;-0.01;83.64;99952.69;1748978;81;21265;-79
2021/12/07 03:55:19;;;;;;;;;;;;;;;-0.17;84.24;99959.28;1750488;81;20169;-75
2021/12/07 03:57:46;;;;;;;;;;;;;;;-0.13;84.67;99962.05;1742393;81;20158;-77
2021/12/07 04:00:16;;;;;;;;;;;;;;;-0.05;84.53;99964.17;1748613;80;20146;-76
2021/12/07 04:02:43;;;;;;;;;;;;;;;-0.13;84.02;99967.23;1745066;81;20132;-76
2021/12/07 04:05:13;;;;;;;;;;;;;;;-0.26;84.32;99968.91;1739680;80;21174;-75
2021/12/07 04:07:37;;;;;;;;;;;;;;;-0.28;84.56;99970.74;1744488;81;20210;-75
2021/12/07 04:10:04;;;;;;;;;;;;;;;-0.24;84.75;99970.94;1741616;81;20151;-80
2021/12/07 04:12:29;;;;;;;;;;;;;;;-0.12;84.58;99974.58;1746997;81;20220;-75
2021/12/07 04:14:55;;;;;;;;;;;;;;;-0.27;84.69;99975.02;1745598;81;20171;-75
2021/12/07 04:17:20;;;;;;;;;;;;;;;-0.43;85.04;99974.62;1748167;81;21146;-76
2021/12/07 04:19:46;;;;;;;;;;;;;;;-0.50;85.58;99981.08;1754587;81;20179;-77
2021/12/07 04:22:12;;;;;;;;;;;;;;;-0.40;86.16;99985.30;1742372;81;20535;-75
2021/12/07 04:24:37;;;;;;;;;;;;;;;-0.37;86.02;99986.41;1738831;80;20150;-77
2021/12/07 04:27:05;;;;;;;;;;;;;;;-0.17;85.19;99981.34;1734293;81;20592;-76
2021/12/07 04:29:31;;;;;;;;;;;;;;;-0.01;84.62;99977.35;1741452;81;21133;-77
2021/12/07 04:31:57;;;;;;;;;;;;;;;0.15;84.19;99979.84;1742237;81;20312;-76
2021/12/07 04:34:22;;;;;;;;;;;;;;;0.01;84.43;99981.16;1743420;81;20205;-76
2021/12/07 04:36:50;;;;;;;;;;;;;;;0.04;83.82;99979.19;1738700;81;21165;-77
2021/12/07 04:39:15;;;;;;;;;;;;;;;0.13;83.88;99978.64;1740650;81;20243;-78
2021/12/07 04:41:44;;;;;;;;;;;;;;;0.22;83.37;99981.14;1741928;81;21052;-78
2021/12/07 04:44:10;;;;;;;;;;;;;;;0.13;83.56;99990.80;1748386;80;20949;-76
2021/12/07 04:46:52;;;;;;;;;;;;;;;0.09;83.55;99986.70;1745694;81;20174;-78
2021/12/07 05:00:03;;;;;;;;;;;;;;;-0.29;85.57;100014.02;1741730;80;20177;-76
2021/12/07 05:02:27;;;;;;;;;;;;;;;-0.11;85.06;100025.09;1749565;80;20441;-76
2021/12/07 05:04:53;;;;;;;;;;;;;;;-0.16;84.60;100021.91;1750421;80;20134;-75
2021/12/07 05:07:29;;;;;;;;;;;;;;;-0.14;84.44;100019.23;1727626;80;20649;-75
2021/12/07 05:14:44;;;;;;;;;;;;;;;-0.08;84.31;100019.72;1738905;80;20501;-79
2021/12/07 05:17:23;;;;;;;;;;;;;;;0.03;84.24;100022.12;1746347;80;20143;-78
2021/12/07 05:38:36;;;;;;;;;;;;;;;0.27;83.46;100014.15;1723458;80;20191;-76
2021/12/07 05:41:01;;;;;;;;;;;;;;;0.35;83.26;100015.81;1741536;80;20205;-77
2021/12/07 05:43:29;;;;;;;;;;;;;;;0.18;83.25;100017.30;1741471;81;21270;-79
2021/12/07 05:45:55;;;;;;;;;;;;;;;0.20;83.25;100018.03;1742831;80;20145;-77
2021/12/07 05:48:22;;;;;;;;;;;;;;;0.07;83.41;100022.32;1754469;80;20124;-76
2021/12/07 05:50:50;;;;;;;;;;;;;;;0.11;83.72;100021.19;1751852;80;20286;-78
2021/12/07 05:53:17;;;;;;;;;;;;;;;0.20;83.66;100023.23;1743596;80;20200;-78
2021/12/07 05:55:42;;;;;;;;;;;;;;;0.24;83.42;100022.12;1731044;80;20153;-78
2021/12/07 05:58:08;;;;;;;;;;;;;;;0.30;83.23;100020.45;1740271;80;21891;-79
2021/12/07 06:00:34;;;;;;;;;;;;;;;0.33;82.90;100021.56;1751480;81;20121;-80
2021/12/07 06:03:01;;;;;;;;;;;;;;;0.20;83.68;100019.81;1725928;81;20772;-78
2021/12/07 06:05:29;;;;;;;;;;;;;;;0.11;83.72;100021.19;1741949;81;20860;-78
2021/12/07 06:07:55;;;;;;;;;;;;;;;0.09;83.98;100018.69;1743684;81;20220;-79
2021/12/07 06:10:23;;;;;;;;;;;;;;;0.16;83.95;100019.17;1740536;80;21166;-76
2021/12/07 06:12:51;;;;;;;;;;;;;;;0.11;83.67;100021.19;1751661;81;20206;-77
2021/12/07 06:15:20;;;;;;;;;;;;;;;0.05;83.88;100024.16;1741256;81;20483;-80
2021/12/07 06:17:44;;;;;;;;;;;;;;;0.04;84.11;100022.50;1738423;81;20149;-77
2021/12/07 06:20:10;;;;;;;;;;;;;;;0.05;83.95;100019.81;1742512;81;20123;-79
2021/12/07 06:22:38;;;;;;;;;;;;;;;-0.20;84.64;100020.45;1743965;81;21122;-78
2021/12/07 06:25:06;;;;;;;;;;;;;;;-0.14;83.86;100017.48;1746807;81;20160;-77
2021/12/07 06:27:31;;;;;;;;;;;;;;;-0.11;83.67;100018.61;1743482;81;20480;-78
2021/12/07 06:29:57;;;;;;;;;;;;;;;0.03;83.51;100019.05;1745648;81;20231;-79
2021/12/07 06:32:26;;;;;;;;;;;;;;;-0.19;83.61;100027.28;1739211;81;20183;-80
2021/12/07 06:34:53;;;;;;;;;;;;;;;-0.23;83.78;100029.23;1723386;81;20198;-75
2021/12/07 06:37:20;;;;;;;;;;;;;;;-0.25;84.04;100028.94;1741569;81;20222;-78
2021/12/07 06:39:46;;;;;;;;;;;;;;;-0.17;83.79;100037.58;1735909;80;20952;-80
2021/12/07 06:42:13;;;;;;;;;;;;;;;-0.33;83.07;100041.06;1727257;81;20447;-83
2021/12/07 06:44:40;;;;;;;;;;;;;;;-0.29;82.87;100036.08;1744288;80;20170;-82
2021/12/07 06:47:06;;;;;;;;;;;;;;;-0.45;83.17;100049.55;1742770;81;21088;-79
2021/12/07 06:49:32;;;;;;;;;;;;;;;-0.47;83.49;100048.81;1748257;81;20805;-79
2021/12/07 06:51:59;;;;;;;;;;;;;;;-0.32;83.11;100039.33;1743269;81;20151;-79
2021/12/07 06:54:25;;;;;;;;;;;;;;;-0.47;82.80;100044.45;1738436;81;20166;-77
2021/12/07 06:56:52;;;;;;;;;;;;;;;-0.35;83.05;100047.29;1735502;81;20136;-78
2021/12/07 06:59:18;;;;;;;;;;;;;;;-0.41;82.68;100051.89;1745351;80;21007;-78
2021/12/07 07:01:44;;;;;;;;;;;;;;;-0.46;82.81;100053.92;1717197;80;20534;-77
2021/12/07 07:04:12;;;;;;;;;;;;;;;-0.37;82.72;100052.09;1744308;80;20223;-80
2021/12/07 07:06:40;;;;;;;;;;;;;;;-0.62;83.27;100051.81;1743785;80;20138;-80
2021/12/07 07:09:06;;;;;;;;;;;;;;;-0.53;83.43;100051.29;1741012;80;20196;-81
2021/12/07 07:11:31;;;;;;;;;;;;;;;-0.44;82.84;100053.36;1735015;80;21234;-77
2021/12/07 07:14:01;;;;;;;;;;;;;;;-0.31;82.70;100052.66;1734836;80;20201;-77
2021/12/07 07:16:27;;;;;;;;;;;;;;;-0.24;82.12;100054.80;1712110;81;20212;-80
2021/12/07 07:18:53;;;;;;;;;;;;;;;-0.21;82.23;100063.70;1722812;81;20392;-79
2021/12/07 07:21:23;;;;;;;;;;;;;;;-0.28;82.08;100066.75;1744422;81;20167;-77
2021/12/07 07:23:53;;;;;;;;;;;;;;;-0.29;82.00;100065.92;1754694;80;20117;-78
2021/12/07 07:26:20;;;;;;;;;;;;;;;-0.44;82.66;100066.33;1721278;82;20243;-78
2021/12/07 07:28:46;;;;;;;;;;;;;;;-0.37;82.49;100067.66;1728369;81;20171;-82
2021/12/07 07:31:11;;;;;;;;;;;;;;;-0.51;82.60;100065.03;1731986;81;20116;-82
2021/12/07 07:33:43;;;;;;;;;;;;;;;-0.61;83.56;100067.76;1732923;81;20165;-78
2021/12/07 07:36:08;;;;;;;;;;;;;;;-0.48;82.98;100070.05;1728192;81;21159;-77
2021/12/07 07:38:35;;;;;;;;;;;;;;;-0.47;82.54;100074.28;1733870;81;20117;-79
2021/12/07 07:41:01;;;;;;;;;;;;;;;-0.31;82.34;100076.86;1728698;81;20131;-81
2021/12/07 07:43:29;;;;;;;;;;;;;;;-0.30;82.34;100085.47;1724252;81;21660;-79
2021/12/07 07:45:55;;;;;;;;;;;;;;;-0.31;82.45;100079.89;1734266;81;20610;-78
2021/12/07 07:48:22;;;;;;;;;;;;;;;-0.21;82.28;100084.94;1727351;81;21174;-76
2021/12/07 07:50:50;;;;;;;;;;;;;;;-0.29;82.23;100081.48;1731890;81;20218;-78
2021/12/07 07:53:16;;;;;;;;;;;;;;;-0.40;82.86;100083.40;1726125;81;20262;-78
2021/12/07 07:55:42;;;;;;;;;;;;;;;-0.67;83.74;100083.66;1710777;81;20811;-80
2021/12/07 07:58:08;;;;;;;;;;;;;;;-0.64;84.47;100083.48;1710322;81;20115;-78
2021/12/07 08:00:34;;;;;;;;;;;;;;;-0.60;84.60;100085.00;1740229;81;21115;-80
2021/12/07 08:03:00;;;;;;;;;;;;;;;-0.57;83.82;100082.23;1738561;80;20159;-79
2021/12/07 08:05:26;;;;;;;;;;;;;;;-0.49;84.14;100080.03;1715655;81;20176;-80
2021/12/07 08:07:52;;;;;;;;;;;;;;;-0.34;83.57;100077.04;1737455;81;20178;-79
2021/12/07 08:10:21;;;;;;;;;;;;;;;-0.33;83.33;100082.58;1698280;81;20271;-78
2021/12/07 08:12:47;;;;;;;;;;;;;;;-0.25;82.70;100091.22;1734328;81;21155;-77
2021/12/07 08:15:14;;;;;;;;;;;;;;;-0.38;83.38;100101.00;1731584;80;20181;-78
2021/12/07 08:17:39;;;;;;;;;;;;;;;-0.55;83.47;100087.69;1733309;81;21339;-79
2021/12/07 08:20:07;;;;;;;;;;;;;;;-0.29;83.18;100096.23;1737273;81;20158;-82
2021/12/07 08:22:39;;;;;;;;;;;;;;;-0.46;83.61;100096.72;1729584;81;20234;-77
2021/12/07 08:25:06;;;;;;;;;;;;;;;-0.41;83.45;100093.87;1730832;81;21092;-80
2021/12/07 08:27:31;;;;;;;;;;;;;;;-0.31;83.21;100104.11;1727840;81;20164;-78
2021/12/07 08:29:58;;;;;;;;;;;;;;;-0.31;83.16;100101.95;1734370;80;20221;-82
2021/12/07 08:32:25;;;;;;;;;;;;;;;-0.53;83.88;100109.65;1734685;81;20175;-80
2021/12/07 08:34:51;;;;;;;;;;;;;;;-0.51;83.99;100114.31;1745709;81;20143;-80
2021/12/07 08:37:17;;;;;;;;;;;;;;;-0.70;84.65;100120.14;1743282;81;21071;-80
2021/12/07 08:39:43;;;;;;;;;;;;;;;-0.58;84.35;100123.34;1717562;81;20137;-78
2021/12/07 08:42:09;;;;;;;;;;;;;;;-0.53;84.58;100128.27;1731020;81;20180;-81
2021/12/07 08:44:39;;;;;;;;;;;;;;;-0.75;84.91;100125.10;1740760;81;20254;-80
2021/12/07 08:47:04;;;;;;;;;;;;;;;-0.84;85.35;100126.94;1741676;81;20183;-81
2021/12/07 08:49:30;;;;;;;;;;;;;;;-0.73;84.85;100125.02;1724104;81;21142;-81
2021/12/07 08:51:58;;;;;;;;;;;;;;;-0.64;84.85;100122.39;1737119;80;20734;-80
2021/12/07 08:59:44;;;;;;;;;;;;;;;-0.21;82.81;100114.78;1741226;81;20102;-79
2021/12/07 09:02:08;;;;;;;;;;;;;;;-0.07;82.39;100126.50;1752546;80;20146;-78
2021/12/07 09:04:34;;;;;;;;;;;;;;;0.05;81.93;100124.10;1752045;80;20417;-79
2021/12/07 09:07:02;;;;;;;;;;;;;;;-0.18;81.89;100130.18;1752852;80;20193;-79
2021/12/07 09:09:30;;;;;;;;;;;;;;;-0.24;82.55;100129.23;1746967;81;20200;-77
2021/12/07 09:11:56;;;;;;;;;;;;;;;-0.37;83.21;100133.81;1744878;81;20168;-79
2021/12/07 09:14:23;;;;;;;;;;;;;;;-0.18;82.84;100135.37;1744357;81;21140;-77
2021/12/07 09:16:48;;;;;;;;;;;;;;;-0.33;83.38;100134.47;1755547;80;20228;-83
2021/12/07 09:19:14;;;;;;;;;;;;;;;-0.15;82.94;100135.20;1745610;80;20598;-80
2021/12/07 09:21:40;;;;;;;;;;;;;;;-0.22;82.38;100129.53;1743003;80;20203;-80
2021/12/07 09:24:06;;;;;;;;;;;;;;;-0.27;82.53;100125.52;1744068;81;20156;-80
2021/12/07 09:26:31;;;;;;;;;;;;;;;-0.24;83.06;100127.94;1719014;81;21016;-80
2021/12/07 09:28:57;;;;;;;;;;;;;;;-0.03;82.67;100128.47;1717867;81;20241;-80
2021/12/07 09:31:22;;;;;;;;;;;;;;;-0.01;81.56;100133.93;1742135;81;20178;-80
2021/12/07 09:33:48;;;;;;;;;;;;;;;-0.14;81.96;100131.69;1745301;81;20158;-79
2021/12/07 09:36:14;;;;;;;;;;;;;;;-0.25;82.18;100123.66;1749616;81;20873;-79
2021/12/07 09:38:40;;;;;;;;;;;;;;;-0.29;82.21;100125.60;1731660;81;20902;-80
2021/12/07 09:41:06;;;;;;;;;;;;;;;-0.30;82.04;100123.92;1744529;80;20303;-79
2021/12/07 09:43:33;;;;;;;;;;;;;;;-0.19;81.78;100116.81;1751539;81;20141;-78
2021/12/07 09:46:00;;;;;;;;;;;;;;;-0.29;82.17;100118.29;1751885;81;20182;-79
2021/12/07 09:48:27;;;;;;;;;;;;;;;-0.23;82.09;100117.94;1750902;80;20237;-81
2021/12/07 09:50:56;;;;;;;;;;;;;;;-0.29;82.42;100118.29;1746391;81;21110;-78
2021/12/07 09:53:24;;;;;;;;;;;;;;;-0.13;82.34;100110.45;1752737;80;20386;-78
2021/12/07 09:55:52;;;;;;;;;;;;;;;-0.04;81.60;100117.23;1747616;81;20206;-79
2021/12/07 09:58:18;;;;;;;;;;;;;;;0.00;81.79;100121.80;1740631;80;20092;-78
2021/12/07 10:00:44;;;;;;;;;;;;;;;0.17;80.97;100116.89;1730605;81;20242;-81
2021/12/07 10:03:10;;;;;;;;;;;;;;;0.21;80.44;100118.40;1726768;81;21148;-78
2021/12/07 10:05:36;;;;;;;;;;;;;;;0.18;79.71;100125.07;1718036;81;20216;-78
2021/12/07 10:08:02;;;;;;;;;;;;;;;0.14;79.23;100122.27;1736292;81;20196;-78
2021/12/07 10:10:30;;;;;;;;;;;;;;;0.05;79.60;100118.91;1719173;81;20236;-78
2021/12/07 10:12:56;;;;;;;;;;;;;;;0.27;79.66;100114.14;1707451;81;20274;-77
2021/12/07 10:15:22;;;;;;;;;;;;;;;0.39;79.06;100118.22;1724558;81;22428;-80
2021/12/07 10:18:02;;;;;;;;;;;;;;;0.51;78.59;100117.48;1711541;81;20327;-79
2021/12/07 10:20:41;;;;;;;;;;;;;;;0.07;78.51;100117.08;1701069;82;20117;-78
2021/12/07 10:23:22;;;;;;;;;;;;;;;0.14;78.99;100106.69;1719906;81;20229;-78
2021/12/07 10:25:55;;;;;;;;;;;;;;;-0.06;79.58;100113.91;1718252;81;20207;-78
2021/12/07 10:28:52;;;;;;;;;;;;;;;-0.01;79.84;100104.08;1698104;81;21138;-79
2021/12/07 10:31:21;;;;;;;;;;;;;;;0.17;79.88;100109.11;1718047;81;20172;-79
2021/12/07 10:33:54;;;;;;;;;;;;;;;0.05;79.78;100102.89;1729222;81;20174;-79
2021/12/07 10:36:28;;;;;;;;;;;;;;;-0.13;80.13;100106.09;1700592;81;20184;-79
2021/12/07 10:38:58;;;;;;;;;;;;;;;0.02;80.22;100102.22;1734000;80;20175;-79
2021/12/07 10:41:26;;;;;;;;;;;;;;;-0.01;79.72;100107.14;1726374;80;21104;-78
2021/12/07 10:44:10;;;;;;;;;;;;;;;0.05;79.18;100107.23;1720358;81;39088;-78
2021/12/07 10:46:41;;;;;;;;;;;;;;;0.15;79.25;100110.49;1723757;81;20800;-77
2021/12/07 10:49:28;;;;;;;;;;;;;;;0.23;78.41;100115.23;1720199;81;20903;-79
2021/12/07 10:52:04;;;;;;;;;;;;;;;0.18;78.46;100111.61;1776219;78;20324;-79
2021/12/07 10:54:39;;;;;;;;;;;;;;;0.13;78.55;100111.05;1772094;78;21075;-79
2021/12/07 10:57:06;;;;;;;;;;;;;;;0.19;78.48;100107.27;1769133;79;20197;-79
2021/12/07 10:59:32;;;;;;;;;;;;;;;-0.04;78.83;100101.66;1765665;78;20490;-79
2021/12/07 11:01:57;;;;;;;;;;;;;;;0.12;78.82;100096.87;1814824;78;20265;-79
2021/12/07 11:04:36;;;;;;;;;;;;;;;0.19;78.58;100096.89;1805844;77;20118;-80
2021/12/07 11:07:20;;;;;;;;;;;;;;;0.33;78.56;100094.30;1808803;78;21204;-80
2021/12/07 11:09:51;;;;;;;;;;;;;;;0.49;78.43;100098.57;1802666;78;20210;-82
2021/12/07 11:12:18;;;;;;;;;;;;;;;0.50;78.08;100098.48;1805633;78;20174;-79
2021/12/07 11:14:54;;;;;;;;;;;;;;;0.60;77.55;100102.64;1817526;78;20167;-80
2021/12/07 11:17:24;;;;;;;;;;;;;;;0.51;77.92;100101.90;1809873;78;20191;-79
2021/12/07 11:19:51;;;;;;;;;;;;;;;0.51;77.19;100105.80;1813848;78;21319;-79
2021/12/07 11:22:21;;;;;;;;;;;;;;;0.60;77.15;100105.23;1808643;78;20142;-80
2021/12/07 11:24:46;;;;;;;;;;;;;;;0.39;76.92;100107.83;1811360;78;20421;-80
2021/12/07 11:30:11;;;;;;;;;;;;;;;0.62;76.84;100115.09;1816399;78;20163;-79
2021/12/07 11:32:39;;;;;;;;;;;;;;;0.54;77.45;100117.30;1805666;78;21143;-78
2021/12/07 11:35:30;;;;;;;;;;;;;;;0.52;77.21;100117.88;1812735;78;20127;-78
2021/12/07 11:37:57;;;;;;;;;;;;;;;0.44;77.71;100117.50;1812358;78;20209;-78
2021/12/07 11:40:32;;;;;;;;;;;;;;;0.49;77.51;100116.75;1811113;78;20111;-77
2021/12/07 11:42:58;;;;;;;;;;;;;;;0.54;76.95;100119.91;1813841;78;20189;-77
2021/12/07 11:45:29;;;;;;;;;;;;;;;0.49;77.19;100122.78;1805528;78;21042;-79
2021/12/07 11:47:57;;;;;;;;;;;;;;;0.59;76.71;100126.98;1803513;78;20795;-79
2021/12/07 11:50:35;;;;;;;;;;;;;;;0.64;76.43;100129.30;1803643;78;20148;-79
2021/12/07 11:53:06;;;;;;;;;;;;;;;0.63;76.05;100127.14;1807217;78;20118;-77
2021/12/07 11:55:31;;;;;;;;;;;;;;;0.41;76.59;100129.38;1815383;78;20135;-78
2021/12/07 11:57:58;;;;;;;;;;;;;;;0.59;76.56;100129.58;1800793;78;21168;-78
2021/12/07 12:00:34;;;;;;;;;;;;;;;0.63;76.17;100137.53;1811979;78;20274;-78
2021/12/07 12:02:58;;;;;;;;;;;;;;;0.60;76.22;100136.89;1775450;78;20203;-77
2021/12/07 12:05:24;;;;;;;;;;;;;;;0.46;76.80;100130.75;1784456;78;20172;-77
2021/12/07 12:07:49;;;;;;;;;;;;;;;0.47;76.59;100134.20;1759655;79;20207;-78
2021/12/07 12:10:17;;;;;;;;;;;;;;;0.42;76.85;100133.62;1766111;79;21152;-78
2021/12/07 12:12:53;;;;;;;;;;;;;;;0.49;76.56;100138.36;1762473;79;20136;-77
2021/12/07 12:15:42;;;;;;;;;;;;;;;0.31;76.62;100128.63;1783203;78;20187;-78
2021/12/07 12:18:46;;;;;;;;;;;;;;;0.28;77.04;100131.41;1776651;78;20907;-77
2021/12/07 12:21:46;;;;;;;;;;;;;;;0.60;76.46;100141.63;1788437;78;20127;-79
2021/12/07 12:24:20;;;;;;;;;;;;;;;0.72;75.95;100141.35;1782155;78;21038;-78
2021/12/07 12:26:46;;;;;;;;;;;;;;;0.86;75.76;100148.31;1773991;78;20936;-79
2021/12/07 12:29:17;;;;;;;;;;;;;;;0.39;76.38;100145.05;1769592;78;20170;-79
2021/12/07 12:31:51;;;;;;;;;;;;;;;0.47;76.25;100153.22;1770985;78;20152;-79
2021/12/07 12:34:24;;;;;;;;;;;;;;;0.33;76.10;100147.55;1784297;78;20199;-78
2021/12/07 12:37:02;;;;;;;;;;;;;;;0.11;77.44;100157.50;1770652;78;21015;-79
2021/12/07 12:39:52;;;;;;;;;;;;;;;0.19;77.53;100152.72;1766143;78;20133;-79
2021/12/07 12:42:41;;;;;;;;;;;;;;;0.29;77.05;100146.04;1776036;78;20155;-77
2021/12/07 12:45:21;;;;;;;;;;;;;;;0.48;76.15;100151.45;1783328;78;20775;-78
2021/12/07 12:48:05;;;;;;;;;;;;;;;0.48;75.62;100147.55;1772633;78;20096;-78
2021/12/07 12:50:47;;;;;;;;;;;;;;;0.44;75.77;100143.02;1774849;78;22655;-78
2021/12/07 12:53:16;;;;;;;;;;;;;;;0.29;76.14;100149.11;1777324;78;20257;-78
2021/12/07 12:55:49;;;;;;;;;;;;;;;0.27;76.67;100153.57;1768604;78;20152;-76
2021/12/07 12:58:35;;;;;;;;;;;;;;;0.18;76.55;100162.72;1788663;78;20789;-78
2021/12/07 13:01:08;;;;;;;;;;;;;;;0.16;76.97;100157.62;1787147;77;20134;-78
2021/12/07 13:03:52;;;;;;;;;;;;;;;-0.06;77.43;100154.14;1818529;78;21176;-78
2021/12/07 13:06:27;;;;;;;;;;;;;;;-0.14;78.08;100155.05;1817285;77;20185;-79
2021/12/07 13:08:55;;;;;;;;;;;;;;;0.13;77.69;100157.80;1805895;78;20172;-77
2021/12/07 13:11:33;;;;;;;;;;;;;;;-0.04;77.72;100163.95;1805475;78;20180;-79
2021/12/07 13:13:59;;;;;;;;;;;;;;;0.02;77.68;100162.78;1807537;78;20191;-80
2021/12/07 13:16:26;;;;;;;;;;;;;;;0.01;77.89;100155.08;1811082;78;21189;-80
2021/12/07 13:19:04;;;;;;;;;;;;;;;0.04;77.85;100163.99;1814323;77;20503;-80
2021/12/07 13:21:32;;;;;;;;;;;;;;;-0.02;78.08;100168.63;1813733;78;20152;-77
2021/12/07 13:24:03;;;;;;;;;;;;;;;-0.08;78.48;100162.48;1801997;77;20218;-76
2021/12/07 13:26:37;;;;;;;;;;;;;;;-0.12;78.70;100167.46;1816729;78;20934;-77
2021/12/07 13:29:17;;;;;;;;;;;;;;;-0.15;78.62;100166.34;1808165;77;21134;-77
2021/12/07 13:31:51;;;;;;;;;;;;;;;-0.30;78.73;100180.17;1811716;78;20163;-77
2021/12/07 13:34:25;;;;;;;;;;;;;;;-0.30;78.86;100176.28;1810853;78;20619;-77
2021/12/07 13:37:07;;;;;;;;;;;;;;;-0.28;78.72;100180.92;1780478;78;20153;-78
2021/12/07 13:39:51;;;;;;;;;;;;;;;-0.30;78.12;100179.70;1808694;78;20165;-78
2021/12/07 13:42:21;;;;;;;;;;;;;;;-0.24;77.91;100177.23;1805094;78;21170;-77
2021/12/07 13:44:50;;;;;;;;;;;;;;;-0.14;77.78;100178.41;1804119;78;20477;-78
2021/12/07 13:47:19;;;;;;;;;;;;;;;-0.20;77.90;100186.53;1813726;78;20259;-79
2021/12/07 13:49:47;;;;;;;;;;;;;;;-0.21;78.12;100186.15;1813944;78;20905;-80
2021/12/07 13:52:17;;;;;;;;;;;;;;;-0.18;77.66;100192.47;1816967;78;20471;-79
2021/12/07 13:54:45;;;;;;;;;;;;;;;-0.26;77.71;100188.17;1805217;78;21319;-79
2021/12/07 13:57:16;;;;;;;;;;;;;;;-0.28;77.98;100198.64;1821483;78;20119;-80
2021/12/07 13:59:41;;;;;;;;;;;;;;;-0.29;78.19;100195.66;1808661;78;20136;-80
2021/12/07 14:02:09;;;;;;;;;;;;;;;-0.27;78.09;100192.51;1821699;78;20239;-79
2021/12/07 14:04:37;;;;;;;;;;;;;;;-0.16;77.94;100195.80;1821600;78;20849;-79
2021/12/07 14:07:03;;;;;;;;;;;;;;;-0.28;78.11;100191.30;1815474;77;20500;-82
2021/12/07 14:09:29;;;;;;;;;;;;;;;-0.38;78.87;100196.17;1811804;78;20192;-79
2021/12/07 14:11:57;;;;;;;;;;;;;;;-0.33;79.21;100203.70;1793066;78;20181;-79
2021/12/07 14:14:23;;;;;;;;;;;;;;;-0.68;80.40;100193.48;1819027;77;20217;-80
2021/12/07 14:16:49;;;;;;;;;;;;;;;-0.78;80.62;100188.83;1812891;78;20277;-78
2021/12/07 14:19:14;;;;;;;;;;;;;;;-0.72;80.42;100194.95;1810412;78;21124;-78
2021/12/07 14:21:40;;;;;;;;;;;;;;;-0.68;80.47;100189.16;1811509;78;20176;-82